Time;durP1;ratioP1;P1;durP2;ratioP2;P2;SDS_P1;SDS_P2;PMS_P1;PMS_P2;Temp;Humidity;BMP_temperature;BMP_pressure;BME280_temperature;BME280_humidity;BME280_pressure;Samples;Min_cycle;Max_cycle;Signal;HPM_P1;HPM_P2
2021/05/20 00:00:01;;;;;;;7.73;5.87;;;;;;;5.36;100.00;100858.13;5056421;28;20245;-73
2021/05/20 00:02:27;;;;;;;8.60;6.47;;;;;;;5.31;100.00;100856.41;5055991;28;20362;-74
2021/05/20 00:04:53;;;;;;;9.60;5.37;;;;;;;5.28;100.00;100859.00;5061672;28;20234;-73
2021/05/20 00:07:19;;;;;;;8.70;5.70;;;;;;;5.22;100.00;100852.97;5057887;28;20226;-74
2021/05/20 00:09:45;;;;;;;7.70;5.00;;;;;;;5.27;100.00;100859.00;5062158;28;20358;-74
2021/05/20 00:12:12;;;;;;;7.50;5.40;;;;;;;5.32;100.00;100855.53;5061930;28;20198;-74
2021/05/20 00:14:38;;;;;;;8.97;5.37;;;;;;;5.43;100.00;100854.66;5058759;28;20787;-74
2021/05/20 00:17:05;;;;;;;6.07;4.93;;;;;;;5.44;100.00;100857.25;5059267;28;20205;-73
2021/05/20 00:19:31;;;;;;;6.30;4.80;;;;;;;5.34;100.00;100858.13;5062382;28;20226;-73
2021/05/20 00:21:57;;;;;;;8.17;5.70;;;;;;;5.45;100.00;100853.81;5057845;28;20535;-73
2021/05/20 00:24:23;;;;;;;7.93;5.23;;;;;;;5.36;100.00;100868.47;5058921;28;20191;-74
2021/05/20 00:26:49;;;;;;;9.17;5.93;;;;;;;5.34;100.00;100863.31;5060150;28;20249;-74
2021/05/20 00:29:15;;;;;;;8.83;5.30;;;;;;;5.44;100.00;100865.03;5063721;28;20194;-73
2021/05/20 00:31:41;;;;;;;6.67;4.93;;;;;;;5.63;100.00;100867.59;5054544;28;20577;-74
2021/05/20 00:34:08;;;;;;;7.47;5.47;;;;;;;5.64;100.00;100861.53;5045894;28;20309;-74
2021/05/20 00:36:34;;;;;;;9.17;5.57;;;;;;;5.73;100.00;100868.41;5054654;28;20186;-73
2021/05/20 00:39:01;;;;;;;7.00;5.53;;;;;;;5.77;100.00;100865.81;5060952;28;20222;-73
2021/05/20 00:41:27;;;;;;;8.10;5.90;;;;;;;5.75;100.00;100871.84;5057401;28;20249;-74
2021/05/20 00:43:53;;;;;;;10.57;6.03;;;;;;;5.85;100.00;100874.41;5063946;28;20578;-74
2021/05/20 00:46:20;;;;;;;8.47;5.57;;;;;;;5.96;100.00;100868.38;5056908;28;20210;-74
2021/05/20 00:48:46;;;;;;;7.37;5.70;;;;;;;5.96;100.00;100866.69;5059202;28;20228;-74
2021/05/20 00:51:12;;;;;;;7.93;6.10;;;;;;;6.02;100.00;100871.81;5057835;28;20241;-74
2021/05/20 00:53:39;;;;;;;7.07;5.37;;;;;;;6.02;100.00;100871.81;5060554;28;20211;-74
2021/05/20 00:56:06;;;;;;;9.00;6.40;;;;;;;6.05;100.00;100871.81;5058908;28;20199;-74
2021/05/20 00:58:33;;;;;;;7.07;5.80;;;;;;;5.99;100.00;100874.41;5054445;28;20761;-74
2021/05/20 01:00:59;;;;;;;9.30;6.80;;;;;;;6.03;100.00;100873.56;5058444;28;20267;-74
2021/05/20 01:03:25;;;;;;;9.27;6.67;;;;;;;6.13;100.00;100876.94;5047619;28;20207;-74
2021/05/20 01:05:53;;;;;;;8.63;6.13;;;;;;;6.22;100.00;100873.47;5040680;28;20198;-74
2021/05/20 01:08:20;;;;;;;8.07;6.20;;;;;;;6.30;100.00;100861.34;5065396;28;20210;-74
2021/05/20 01:10:46;;;;;;;7.20;5.47;;;;;;;6.27;100.00;100865.69;5060763;28;20301;-73
2021/05/20 01:13:13;;;;;;;10.03;6.63;;;;;;;6.21;100.00;100871.75;5065389;28;20606;-74
2021/05/20 01:15:39;;;;;;;7.60;5.80;;;;;;;6.12;100.00;100875.25;5059776;28;20306;-74
2021/05/20 01:18:06;;;;;;;8.50;6.50;;;;;;;6.09;100.00;100869.22;5068486;28;20199;-74
2021/05/20 01:20:35;;;;;;;7.40;6.10;;;;;;;6.13;100.00;100876.09;5058413;28;20226;-74
2021/05/20 01:23:03;;;;;;;8.50;6.43;;;;;;;6.13;100.00;100878.69;5063707;28;20190;-74
2021/05/20 01:25:29;;;;;;;7.63;5.93;;;;;;;6.15;100.00;100876.94;5058651;28;20256;-74
2021/05/20 01:28:01;;;;;;;7.33;5.83;;;;;;;6.14;100.00;100876.09;5066041;28;20563;-74
2021/05/20 01:30:28;;;;;;;8.50;5.63;;;;;;;6.22;100.00;100878.66;5060855;28;21074;-74
2021/05/20 01:32:55;;;;;;;9.27;6.83;;;;;;;6.23;100.00;100877.78;5063811;28;20773;-74
2021/05/20 01:35:21;;;;;;;7.87;6.00;;;;;;;6.16;100.00;100882.13;5059269;28;20294;-74
2021/05/20 01:37:47;;;;;;;7.27;5.80;;;;;;;6.19;100.00;100883.81;5066163;28;20558;-74
2021/05/20 01:40:14;;;;;;;10.07;6.57;;;;;;;6.22;100.00;100884.69;5056699;28;20236;-74
2021/05/20 01:42:40;;;;;;;9.20;6.47;;;;;;;6.20;100.00;100876.06;5065382;28;20186;-74
2021/05/20 01:45:07;;;;;;;9.77;6.40;;;;;;;6.16;100.00;100876.94;5061590;28;20191;-74
2021/05/20 01:47:33;;;;;;;7.90;6.17;;;;;;;6.11;100.00;100876.09;5061947;28;20199;-74
2021/05/20 01:49:59;;;;;;;10.53;7.63;;;;;;;6.11;100.00;100883.00;5060372;28;20233;-73
2021/05/20 01:52:25;;;;;;;8.13;6.10;;;;;;;6.10;100.00;100886.47;5064189;28;20276;-74
2021/05/20 01:54:52;;;;;;;8.77;6.70;;;;;;;6.20;100.00;100880.38;5061712;28;21153;-73
2021/05/20 01:57:18;;;;;;;9.47;6.23;;;;;;;6.23;100.00;100881.22;5065802;28;20198;-74
2021/05/20 01:59:44;;;;;;;7.97;6.27;;;;;;;6.23;100.00;100873.47;5059022;28;20546;-74
2021/05/20 02:02:10;;;;;;;9.00;6.83;;;;;;;6.20;100.00;100876.06;5063122;28;20190;-74
2021/05/20 02:04:36;;;;;;;8.53;6.30;;;;;;;6.22;100.00;100889.00;5060831;28;20199;-74
2021/05/20 02:07:03;;;;;;;8.50;6.03;;;;;;;6.17;100.00;100883.81;5062808;28;20206;-74
2021/05/20 02:09:29;;;;;;;8.53;6.10;;;;;;;6.20;100.00;100886.41;5058586;28;20214;-74
2021/05/20 02:11:55;;;;;;;11.70;6.73;;;;;;;6.15;100.00;100882.13;5065023;28;20231;-74
2021/05/20 02:14:21;;;;;;;8.90;6.63;;;;;;;6.13;100.00;100881.28;5058928;28;20670;-74
2021/05/20 02:16:47;;;;;;;8.30;6.87;;;;;;;6.06;100.00;100883.88;5064900;28;20222;-74
2021/05/20 02:19:13;;;;;;;9.43;6.80;;;;;;;5.99;100.00;100891.69;5060399;28;20242;-74
2021/05/20 02:21:39;;;;;;;8.47;6.57;;;;;;;5.95;100.00;100898.56;5061833;28;20709;-73
2021/05/20 02:24:06;;;;;;;7.83;6.33;;;;;;;6.08;100.00;100904.59;5061172;28;20264;-74
2021/05/20 02:26:32;;;;;;;7.73;6.53;;;;;;;6.01;100.00;100897.69;5063693;28;20210;-73
2021/05/20 02:28:59;;;;;;;8.93;6.57;;;;;;;6.03;100.00;100899.44;5062016;28;20583;-74
2021/05/20 02:31:25;;;;;;;7.90;5.73;;;;;;;5.95;100.00;100902.88;5064175;28;20205;-74
2021/05/20 02:33:51;;;;;;;9.87;6.57;;;;;;;5.86;100.00;100899.44;5060514;28;20298;-74
2021/05/20 02:36:17;;;;;;;7.80;6.00;;;;;;;5.94;100.00;100899.41;5057832;28;20575;-74
2021/05/20 02:38:43;;;;;;;8.90;6.00;;;;;;;6.06;100.00;100906.31;5060514;28;20583;-74
2021/05/20 02:41:09;;;;;;;7.43;5.83;;;;;;;6.05;100.00;100904.59;5064806;28;20215;-73
2021/05/20 02:43:35;;;;;;;7.40;5.53;;;;;;;5.98;100.00;100901.19;5058784;28;20286;-74
2021/05/20 02:46:02;;;;;;;8.57;5.93;;;;;;;5.93;100.00;100895.13;5058145;28;20798;-74
2021/05/20 02:48:28;;;;;;;7.70;5.23;;;;;;;5.90;100.00;100896.84;5060385;28;20207;-74
2021/05/20 02:50:54;;;;;;;7.50;5.70;;;;;;;5.67;100.00;100901.19;5063181;28;20337;-74
2021/05/20 02:53:20;;;;;;;7.83;5.83;;;;;;;5.65;100.00;100904.66;5041437;28;20225;-73
2021/05/20 02:55:46;;;;;;;8.67;5.83;;;;;;;5.68;100.00;100910.69;5062912;28;20207;-73
2021/05/20 02:58:16;;;;;;;7.73;5.80;;;;;;;5.66;100.00;100912.44;5061850;28;20571;-73
2021/05/20 03:00:42;;;;;;;8.77;6.00;;;;;;;5.53;100.00;100910.69;5062624;28;20223;-74
2021/05/20 03:03:09;;;;;;;8.40;5.90;;;;;;;5.47;100.00;100916.75;5059237;28;20278;-73
2021/05/20 03:05:35;;;;;;;7.53;5.97;;;;;;;5.69;100.00;100925.34;5057690;28;20194;-73
2021/05/20 03:08:01;;;;;;;7.73;6.17;;;;;;;5.53;100.00;100921.03;5063176;28;20293;-74
2021/05/20 03:10:27;;;;;;;6.57;5.33;;;;;;;5.51;100.00;100915.03;5059573;28;20228;-74
2021/05/20 03:12:53;;;;;;;6.77;5.03;;;;;;;5.41;100.00;100926.22;5061833;28;20211;-75
2021/05/20 03:15:19;;;;;;;9.13;5.90;;;;;;;5.31;100.00;100930.53;5057388;28;20760;-74
2021/05/20 03:17:45;;;;;;;10.13;5.83;;;;;;;5.42;100.00;100933.97;5061087;28;20330;-73
2021/05/20 03:20:14;;;;;;;7.43;5.80;;;;;;;5.41;100.00;100937.41;5060080;28;20231;-73
2021/05/20 03:22:40;;;;;;;9.30;6.03;;;;;;;5.38;100.00;100937.44;5058766;28;20198;-73
2021/05/20 03:25:08;;;;;;;9.73;6.23;;;;;;;5.46;100.00;100938.28;5060041;28;20584;-74
2021/05/20 03:27:34;;;;;;;8.13;6.33;;;;;;;5.58;100.00;100929.66;5053549;28;20678;-73
2021/05/20 03:29:59;;;;;;;7.70;5.83;;;;;;;5.53;100.00;100940.88;5059260;28;20227;-74
2021/05/20 03:32:25;;;;;;;8.93;6.37;;;;;;;5.56;100.00;100935.69;5058501;28;20674;-74
2021/05/20 03:34:51;;;;;;;10.03;6.83;;;;;;;5.52;100.00;100939.16;5059992;28;20636;-73
2021/05/20 03:37:18;;;;;;;7.40;5.50;;;;;;;5.48;100.00;100939.13;5059098;28;20221;-73
2021/05/20 03:39:44;;;;;;;8.10;6.37;;;;;;;5.44;100.00;100944.34;5058943;28;20211;-74
2021/05/20 03:42:10;;;;;;;8.10;6.50;;;;;;;5.44;100.00;100950.38;5061568;28;20762;-73
2021/05/20 03:44:36;;;;;;;8.83;6.87;;;;;;;5.47;100.00;100955.53;5061831;28;20740;-74
2021/05/20 03:47:03;;;;;;;9.97;6.90;;;;;;;5.49;100.00;100955.53;5061595;28;20256;-73
2021/05/20 03:49:29;;;;;;;10.47;6.77;;;;;;;5.41;100.00;100958.09;5039979;28;20736;-74
2021/05/20 03:51:55;;;;;;;8.40;6.67;;;;;;;5.34;100.00;100948.63;5060040;28;20196;-73
2021/05/20 03:54:23;;;;;;;8.00;6.50;;;;;;;5.40;100.00;100963.28;5058106;28;20272;-74
2021/05/20 03:56:49;;;;;;;7.77;6.13;;;;;;;5.54;100.00;100963.28;5059414;28;20673;-73
2021/05/20 03:59:15;;;;;;;8.90;6.67;;;;;;;5.56;100.00;100964.13;5057220;28;20199;-73
2021/05/20 04:01:41;;;;;;;8.23;6.37;;;;;;;5.67;100.00;100965.03;5059652;28;20740;-74
2021/05/20 04:04:07;;;;;;;9.47;6.83;;;;;;;5.79;100.00;100964.16;5060377;28;20198;-74
2021/05/20 04:06:33;;;;;;;8.77;6.97;;;;;;;6.03;100.00;100968.44;5060846;28;20198;-73
2021/05/20 04:08:59;;;;;;;8.77;6.57;;;;;;;6.17;100.00;100973.59;5066769;28;20204;-74
2021/05/20 04:11:28;;;;;;;10.30;7.40;;;;;;;6.27;100.00;100974.44;5054651;28;20289;-74
2021/05/20 04:13:54;;;;;;;10.23;7.30;;;;;;;6.40;100.00;100976.13;5055627;28;20241;-74
2021/05/20 04:16:23;;;;;;;9.77;7.07;;;;;;;6.55;100.00;100983.00;5061477;28;20195;-74
2021/05/20 04:18:49;;;;;;;9.37;7.03;;;;;;;6.73;100.00;100987.22;5055964;28;20220;-74
2021/05/20 04:21:15;;;;;;;8.13;7.10;;;;;;;6.92;100.00;100988.84;5060528;28;20218;-74
2021/05/20 04:23:45;;;;;;;8.63;7.00;;;;;;;7.14;100.00;100987.03;5060765;28;20202;-74
2021/05/20 04:26:12;;;;;;;10.07;7.80;;;;;;;7.30;100.00;100985.19;5056306;28;20618;-74
2021/05/20 04:28:38;;;;;;;9.50;7.47;;;;;;;7.46;100.00;100991.13;5053389;28;20267;-74
2021/05/20 04:31:04;;;;;;;9.67;7.17;;;;;;;7.62;100.00;100999.66;5055714;28;20689;-74
2021/05/20 04:33:30;;;;;;;8.53;7.07;;;;;;;7.70;100.00;101002.16;5058289;28;20206;-74
2021/05/20 04:35:56;;;;;;;11.20;7.50;;;;;;;7.73;100.00;101000.41;5052699;28;20299;-74
2021/05/20 04:38:22;;;;;;;8.93;7.40;;;;;;;7.82;100.00;100994.28;5055560;28;20194;-73
2021/05/20 04:40:48;;;;;;;8.47;6.83;;;;;;;7.87;100.00;101007.22;5054300;28;20219;-74
2021/05/20 04:43:14;;;;;;;9.47;7.13;;;;;;;7.93;100.00;100996.78;5057404;28;20199;-73
2021/05/20 04:45:44;;;;;;;10.43;7.27;;;;;;;7.95;100.00;101011.47;5061546;28;20205;-74
2021/05/20 04:48:10;;;;;;;8.80;7.00;;;;;;;8.03;100.00;101014.00;5060316;28;20215;-74
2021/05/20 04:50:36;;;;;;;10.33;7.23;;;;;;;8.11;100.00;101011.34;5056832;28;20220;-73
2021/05/20 04:53:02;;;;;;;8.93;6.60;;;;;;;8.17;100.00;101011.25;5059435;28;20284;-74
2021/05/20 04:55:28;;;;;;;8.73;7.23;;;;;;;8.21;100.00;101012.09;5064518;28;20745;-74
2021/05/20 04:57:54;;;;;;;8.40;6.93;;;;;;;8.27;100.00;101012.91;5062139;28;20213;-74
2021/05/20 05:00:21;;;;;;;10.43;7.17;;;;;;;8.36;100.00;101011.94;5059291;28;20261;-74
2021/05/20 05:02:48;;;;;;;7.40;6.20;;;;;;;8.39;100.00;101006.72;5063066;28;20604;-74
2021/05/20 05:05:14;;;;;;;7.80;7.00;;;;;;;8.41;100.00;101009.28;5063251;28;20195;-74
2021/05/20 05:07:40;;;;;;;8.13;6.30;;;;;;;8.48;100.00;101014.44;5058594;28;20692;-74
2021/05/20 05:10:07;;;;;;;8.37;6.57;;;;;;;8.53;100.00;101017.84;5054924;28;20307;-74
2021/05/20 05:12:33;;;;;;;8.20;6.10;;;;;;;8.58;100.00;101022.13;5055744;28;20742;-74
2021/05/20 05:14:59;;;;;;;8.03;5.80;;;;;;;8.61;100.00;101030.75;5060917;28;20292;-74
2021/05/20 05:17:25;;;;;;;6.97;5.57;;;;;;;8.63;100.00;101030.72;5061203;28;20285;-74
2021/05/20 05:19:52;;;;;;;5.80;4.93;;;;;;;8.72;100.00;101028.00;5064368;28;20298;-74
2021/05/20 05:22:18;;;;;;;5.77;5.03;;;;;;;8.79;100.00;101027.06;5059487;28;20215;-74
2021/05/20 05:24:44;;;;;;;6.37;5.03;;;;;;;8.83;100.00;101033.97;5058641;28;20199;-74
2021/05/20 05:27:10;;;;;;;5.27;4.70;;;;;;;8.94;100.00;101027.78;5061158;28;20835;-74
2021/05/20 05:29:36;;;;;;;5.47;4.90;;;;;;;9.05;100.00;101025.88;5060045;28;20599;-74
2021/05/20 05:32:03;;;;;;;6.27;5.20;;;;;;;9.17;100.00;101025.72;5057441;28;20237;-74
2021/05/20 05:34:29;;;;;;;5.93;4.57;;;;;;;9.23;100.00;101027.34;5057361;28;20646;-74
2021/05/20 05:36:56;;;;;;;6.23;5.63;;;;;;;9.32;100.00;101031.56;5058472;28;20201;-74
2021/05/20 05:39:22;;;;;;;5.70;4.67;;;;;;;9.35;100.00;101037.59;5064655;28;20271;-74
2021/05/20 05:41:48;;;;;;;5.13;4.63;;;;;;;9.42;99.62;101039.22;5056963;28;20659;-74
2021/05/20 05:44:14;;;;;;;5.20;4.67;;;;;;;9.53;99.09;101038.19;5060176;28;20221;-74
2021/05/20 05:46:40;;;;;;;4.27;3.87;;;;;;;9.65;99.46;101038.00;5057544;28;20196;-74
2021/05/20 05:49:13;;;;;;;4.83;4.33;;;;;;;9.72;99.64;101033.56;5065568;28;20195;-74
2021/05/20 05:51:41;;;;;;;5.07;4.23;;;;;;;9.74;98.19;101037.00;5058351;28;20217;-74
2021/05/20 05:54:08;;;;;;;5.27;4.20;;;;;;;9.86;97.87;101040.25;5062127;28;20573;-74
2021/05/20 05:56:34;;;;;;;5.53;4.10;;;;;;;10.02;98.32;101045.22;5056410;28;20231;-74
2021/05/20 05:59:00;;;;;;;5.10;4.43;;;;;;;10.20;97.43;101046.63;5061530;28;20202;-74
2021/05/20 06:01:26;;;;;;;4.37;3.97;;;;;;;10.49;96.73;101038.31;5045678;28;20790;-74
2021/05/20 06:03:53;;;;;;;4.60;4.20;;;;;;;10.78;94.66;101050.81;5056697;28;20201;-74
2021/05/20 06:06:19;;;;;;;5.03;4.30;;;;;;;11.06;93.89;101050.19;5057038;28;20760;-74
2021/05/20 06:08:45;;;;;;;4.97;4.47;;;;;;;11.34;94.42;101052.22;5061963;28;20218;-74
2021/05/20 06:11:12;;;;;;;4.77;3.90;;;;;;;11.34;92.67;101057.44;5056121;28;20666;-74
2021/05/20 06:13:37;;;;;;;4.53;3.90;;;;;;;11.32;91.33;101057.47;5063323;28;20199;-74
2021/05/20 06:16:04;;;;;;;4.80;4.00;;;;;;;11.31;91.19;101054.88;5054280;28;20281;-74
2021/05/20 06:18:30;;;;;;;4.53;3.50;;;;;;;11.25;88.80;101068.94;5058171;28;20219;-74
2021/05/20 06:20:56;;;;;;;4.17;3.50;;;;;;;11.28;90.01;101063.66;5055886;28;21486;-74
2021/05/20 06:23:23;;;;;;;4.03;3.63;;;;;;;11.23;88.40;101069.88;5059341;28;20195;-74
2021/05/20 06:25:49;;;;;;;5.90;3.60;;;;;;;11.22;88.17;101069.03;5058658;28;20205;-74
2021/05/20 06:28:15;;;;;;;4.00;3.60;;;;;;;11.41;88.63;101068.59;5061673;28;20559;-74
2021/05/20 06:30:41;;;;;;;4.23;3.83;;;;;;;11.55;87.90;101070.00;5060173;28;20235;-74
2021/05/20 06:33:07;;;;;;;4.43;3.80;;;;;;;11.56;86.10;101076.09;5060205;28;20281;-74
2021/05/20 06:35:33;;;;;;;5.00;3.80;;;;;;;11.67;86.11;101075.84;5058232;28;20233;-74
2021/05/20 06:37:59;;;;;;;4.40;3.80;;;;;;;11.72;86.62;101074.00;5061562;28;20208;-76
2021/05/20 06:40:25;;;;;;;4.40;3.57;;;;;;;11.85;85.70;101075.38;5053687;28;20227;-74
2021/05/20 06:42:51;;;;;;;3.97;3.57;;;;;;;11.81;85.17;101076.38;5051749;28;20558;-74
2021/05/20 06:45:18;;;;;;;4.17;3.70;;;;;;;11.83;84.58;101076.34;5059603;28;20204;-74
2021/05/20 06:47:44;;;;;;;3.60;2.87;;;;;;;11.93;86.01;101070.88;5055453;28;20200;-74
2021/05/20 06:50:11;;;;;;;5.27;3.80;;;;;;;12.08;87.27;101074.88;5056800;28;20289;-74
2021/05/20 06:52:37;;;;;;;4.03;3.40;;;;;;;12.12;85.65;101078.28;5053667;28;20241;-74
2021/05/20 06:55:04;;;;;;;3.50;3.20;;;;;;;12.11;83.74;101085.25;5058520;28;20218;-74
2021/05/20 06:59:55;;;;;;;4.47;2.97;;;;;;;12.15;82.83;101090.41;5062875;28;20198;-74
2021/05/20 07:00:17;;;;;;;2.90;2.60;;;;;;;12.16;80.92;101095.59;5058310;28;20225;-75
2021/05/20 07:02:46;;;;;;;4.80;2.80;;;;;;;12.15;80.00;101101.69;5056210;28;20286;-74
2021/05/20 07:05:12;;;;;;;4.53;2.80;;;;;;;12.24;80.11;101098.00;5054867;28;20218;-74
2021/05/20 07:07:38;;;;;;;3.10;2.80;;;;;;;12.07;78.69;101103.66;5060462;28;20232;-74
2021/05/20 07:10:06;;;;;;;2.77;2.40;;;;;;;12.15;79.79;101099.09;5058622;28;20218;-75
2021/05/20 07:12:32;;;;;;;4.77;2.87;;;;;;;12.21;81.02;101093.72;5058759;28;20556;-75
2021/05/20 07:15:01;;;;;;;3.33;2.90;;;;;;;12.31;81.14;101099.56;5060605;28;20213;-74
2021/05/20 07:17:26;;;;;;;5.00;3.17;;;;;;;12.37;82.08;101095.94;5060203;28;20705;-75
2021/05/20 07:19:53;;;;;;;3.43;3.13;;;;;;;12.50;79.10;101097.31;5063153;28;20249;-74
2021/05/20 07:22:19;;;;;;;4.50;3.07;;;;;;;12.61;78.86;101097.91;5058272;28;20203;-75
2021/05/20 07:24:46;;;;;;;4.33;3.13;;;;;;;12.65;78.20;101112.63;5054749;28;20931;-74
2021/05/20 07:27:12;;;;;;;3.20;2.90;;;;;;;12.63;77.23;101113.56;5060777;28;20195;-75
2021/05/20 07:29:38;;;;;;;3.93;3.10;;;;;;;12.72;77.38;101109.81;5060282;28;20214;-75
2021/05/20 07:32:06;;;;;;;3.70;3.07;;;;;;;12.74;78.00;101102.81;5059318;28;20278;-74
2021/05/20 07:34:33;;;;;;;3.17;2.87;;;;;;;12.69;77.04;101109.00;5060110;28;20348;-75
2021/05/20 07:36:59;;;;;;;3.43;3.07;;;;;;;12.63;75.64;101108.34;5059914;28;20195;-74
2021/05/20 07:39:25;;;;;;;3.30;3.00;;;;;;;12.71;76.09;101105.50;5062365;28;20214;-74
2021/05/20 07:41:51;;;;;;;3.40;3.10;;;;;;;12.87;78.37;101104.16;5058367;28;20191;-74
2021/05/20 07:44:17;;;;;;;3.53;2.93;;;;;;;13.04;77.58;101112.41;5061855;28;20190;-75
2021/05/20 07:46:43;;;;;;;4.37;3.10;;;;;;;13.11;77.19;101107.00;5057882;28;20229;-74
2021/05/20 07:49:09;;;;;;;3.90;2.90;;;;;;;13.12;74.42;101117.44;5060354;28;20286;-74
2021/05/20 07:51:35;;;;;;;3.30;3.00;;;;;;;13.32;75.19;101110.78;5055956;28;20282;-74
2021/05/20 07:54:03;;;;;;;3.27;2.97;;;;;;;13.23;73.84;101109.25;5059249;28;20245;-74
2021/05/20 07:56:29;;;;;;;4.27;3.50;;;;;;;13.42;74.44;101113.06;5058335;28;20201;-74
2021/05/20 07:58:55;;;;;;;4.03;3.00;;;;;;;13.36;74.05;101115.00;5060902;28;20394;-75
2021/05/20 08:01:21;;;;;;;4.13;3.20;;;;;;;13.46;75.39;101119.09;5055148;28;20949;-75
2021/05/20 08:03:50;;;;;;;3.63;3.33;;;;;;;13.55;75.99;101112.69;5061325;28;20199;-74
2021/05/20 08:06:19;;;;;;;3.63;3.20;;;;;;;13.52;75.68;101115.41;5061085;28;20188;-75
2021/05/20 08:08:56;;;;;;;3.80;3.40;;;;;;;13.62;73.77;101117.69;5059259;28;20707;-74
2021/05/20 08:11:23;;;;;;;4.70;3.27;;;;;;;13.76;75.79;101108.56;5058950;28;20224;-75
2021/05/20 08:13:49;;;;;;;3.73;3.37;;;;;;;13.74;73.93;101119.09;5058855;28;20584;-75
2021/05/20 08:16:15;;;;;;;4.20;3.20;;;;;;;13.82;72.26;101116.22;5059298;28;20953;-75
2021/05/20 08:18:41;;;;;;;3.77;3.00;;;;;;;13.75;72.39;101114.69;5060543;28;20203;-75
2021/05/20 08:21:08;;;;;;;3.80;2.87;;;;;;;13.64;73.54;101121.13;5058366;28;20649;-75
2021/05/20 08:23:35;;;;;;;3.93;3.10;;;;;;;13.57;71.42;101116.13;5061874;28;20218;-75
2021/05/20 08:26:02;;;;;;;3.93;3.27;;;;;;;13.48;72.25;101125.13;5058700;28;20213;-75
2021/05/20 08:28:30;;;;;;;5.80;3.53;;;;;;;13.57;73.86;101114.34;5057497;28;20201;-75
2021/05/20 08:30:56;;;;;;;4.67;3.37;;;;;;;13.49;72.99;101123.34;5054163;28;20224;-75
2021/05/20 08:33:23;;;;;;;4.27;3.67;;;;;;;13.40;71.94;101129.72;5055153;28;20203;-76
2021/05/20 08:35:49;;;;;;;3.53;3.23;;;;;;;13.39;72.27;101125.41;5050868;28;20456;-75
2021/05/20 08:38:15;;;;;;;4.23;3.83;;;;;;;13.40;72.60;101117.50;5053435;28;20199;-75
2021/05/20 08:40:42;;;;;;;4.30;3.17;;;;;;;13.37;70.50;101121.97;5053960;28;20636;-75
2021/05/20 08:43:08;;;;;;;4.40;3.23;;;;;;;13.68;72.72;101116.63;5059656;28;20190;-75
2021/05/20 08:45:37;;;;;;;4.07;3.00;;;;;;;13.75;71.07;101112.91;5056406;28;20200;-75
2021/05/20 08:48:04;;;;;;;3.70;3.00;;;;;;;13.77;71.28;101118.13;5063543;28;20202;-74
2021/05/20 08:50:32;;;;;;;4.20;3.30;;;;;;;14.00;72.67;101105.16;5057658;28;20298;-75
2021/05/20 08:52:59;;;;;;;3.60;2.90;;;;;;;14.12;71.07;101110.88;5062496;28;20195;-75
2021/05/20 08:55:28;;;;;;;2.90;2.40;;;;;;;14.23;69.05;101108.78;5058314;28;20817;-75
2021/05/20 08:57:54;;;;;;;3.33;2.40;;;;;;;14.30;67.27;101117.25;5062371;28;20198;-75
2021/05/20 09:00:22;;;;;;;3.43;2.77;;;;;;;14.41;68.04;101114.31;5051822;28;20695;-75
2021/05/20 09:02:50;;;;;;;3.50;2.43;;;;;;;14.65;65.44;101126.59;5054671;28;20199;-75
2021/05/20 09:05:19;;;;;;;4.23;2.50;;;;;;;14.89;65.83;101124.00;5056196;28;20199;-75
2021/05/20 09:07:49;;;;;;;4.03;2.97;;;;;;;14.92;62.01;101126.53;5058288;28;20612;-75
2021/05/20 09:10:19;;;;;;;2.63;2.43;;;;;;;14.97;63.69;101114.09;5058055;28;20241;-75
2021/05/20 09:12:46;;;;;;;3.00;2.70;;;;;;;15.10;63.55;101119.75;5054257;28;20229;-75
2021/05/20 09:15:21;;;;;;;2.90;2.57;;;;;;;15.33;63.35;101119.72;5056706;28;20597;-75
2021/05/20 09:17:48;;;;;;;2.80;2.50;;;;;;;15.36;63.56;101115.28;5055751;28;20202;-75
2021/05/20 09:20:16;;;;;;;3.60;2.30;;;;;;;15.14;65.57;101111.69;5058756;28;20218;-75
2021/05/20 09:22:42;;;;;;;3.20;2.33;;;;;;;14.93;62.35;101115.09;5059348;28;20242;-75
2021/05/20 09:25:10;;;;;;;3.47;2.27;;;;;;;14.72;62.97;101122.84;5059963;28;20197;-75
2021/05/20 09:27:40;;;;;;;2.30;2.10;;;;;;;14.72;63.53;101125.47;5060714;28;20206;-75
2021/05/20 09:30:18;;;;;;;2.50;2.30;;;;;;;14.68;65.49;101123.00;5062082;28;20245;-75
2021/05/20 09:32:48;;;;;;;2.43;2.03;;;;;;;14.71;64.67;101125.53;5059718;28;20686;-75
2021/05/20 09:35:16;;;;;;;3.13;1.93;;;;;;;14.86;65.14;101121.47;5060828;28;20210;-75
2021/05/20 09:37:52;;;;;;;2.10;1.90;;;;;;;14.86;65.72;101119.72;5056612;28;20206;-75
2021/05/20 09:40:20;;;;;;;4.37;2.10;;;;;;;14.88;65.50;101119.66;5064449;28;20317;-75
2021/05/20 09:42:47;;;;;;;2.60;2.23;;;;;;;14.66;66.17;101119.59;5060314;28;20984;-75
2021/05/20 09:45:16;;;;;;;4.43;2.37;;;;;;;14.53;66.69;101121.75;5064745;28;20415;-75
2021/05/20 09:47:42;;;;;;;3.57;2.63;;;;;;;14.54;69.51;101107.69;5060487;28;20203;-75
2021/05/20 09:50:11;;;;;;;2.80;2.60;;;;;;;14.50;69.94;101109.59;5063802;28;20203;-75
2021/05/20 09:52:38;;;;;;;2.80;2.50;;;;;;;14.37;70.55;101108.28;5056947;28;20191;-75
2021/05/20 09:55:20;;;;;;;3.07;2.77;;;;;;;14.52;71.44;101106.91;5064201;28;21569;-75
2021/05/20 09:57:46;;;;;;;2.53;2.33;;;;;;;14.55;70.28;101102.41;5054933;28;20242;-75
2021/05/20 10:00:15;;;;;;;3.70;2.23;;;;;;;14.45;68.08;101106.25;5061731;28;20217;-75
2021/05/20 10:02:42;;;;;;;2.37;2.00;;;;;;;14.48;67.67;101100.91;5055188;28;20209;-75
2021/05/20 10:05:27;;;;;;;2.30;2.00;;;;;;;14.42;68.29;101098.47;5061943;28;20252;-75
2021/05/20 10:07:55;;;;;;;2.40;2.20;;;;;;;14.46;70.65;101096.59;5059457;28;21078;-75
2021/05/20 10:10:22;;;;;;;2.60;2.40;;;;;;;14.39;69.87;101099.47;5062521;28;20214;-75
2021/05/20 10:12:48;;;;;;;2.63;2.17;;;;;;;14.38;69.90;101095.13;5058898;28;20206;-75
2021/05/20 10:15:16;;;;;;;3.50;2.60;;;;;;;14.78;70.76;101095.53;5065967;28;20225;-75
2021/05/20 10:17:44;;;;;;;2.70;2.30;;;;;;;15.00;67.90;101095.56;5060702;28;20231;-74
2021/05/20 10:20:12;;;;;;;2.40;2.07;;;;;;;15.34;67.42;101091.69;5062568;28;20230;-75
2021/05/20 10:22:38;;;;;;;2.47;2.27;;;;;;;15.70;68.42;101091.16;5057605;28;20202;-75
2021/05/20 10:25:07;;;;;;;2.30;2.10;;;;;;;15.99;65.06;101095.25;5057761;28;20240;-75
2021/05/20 10:27:34;;;;;;;2.10;1.90;;;;;;;15.79;64.50;101080.28;5057195;28;20207;-75
2021/05/20 10:30:01;;;;;;;2.50;2.30;;;;;;;15.50;63.84;101102.47;5057709;28;20218;-75
2021/05/20 10:32:28;;;;;;;3.00;2.70;;;;;;;14.96;65.48;101107.13;5058432;28;20215;-75
2021/05/20 10:34:59;;;;;;;3.40;2.10;;;;;;;14.10;72.42;101094.34;5062747;28;20226;-75
2021/05/20 10:37:28;;;;;;;2.80;2.20;;;;;;;13.37;76.93;101093.19;5057665;28;20203;-74
2021/05/20 10:39:54;;;;;;;2.20;2.00;;;;;;;13.14;79.50;101088.56;5062665;28;20756;-74
2021/05/20 10:42:38;;;;;;;2.10;1.90;;;;;;;12.96;80.34;101087.34;5058910;28;20200;-74
2021/05/20 10:45:15;;;;;;;2.40;2.20;;;;;;;12.76;80.42;101085.31;5061216;28;20197;-74
2021/05/20 10:48:14;;;;;;;3.80;2.70;;;;;;;12.76;81.29;101083.53;5062605;28;20273;-74
2021/05/20 10:51:12;;;;;;;4.77;2.80;;;;;;;12.92;81.09;101077.88;5058541;28;20217;-74
2021/05/20 10:54:09;;;;;;;5.90;3.07;;;;;;;12.82;78.74;101085.13;5062908;28;21489;-74
2021/05/20 10:56:54;;;;;;;5.37;3.37;;;;;;;13.07;81.47;101070.44;5059308;28;20191;-74
2021/05/20 10:59:43;;;;;;;3.53;2.73;;;;;;;13.13;79.04;101076.41;5058364;28;20207;-74
2021/05/20 11:02:17;;;;;;;4.00;3.60;;;;;;;13.21;81.09;101075.25;5060716;28;20385;-74
2021/05/20 11:04:44;;;;;;;4.23;3.83;;;;;;;13.32;82.62;101068.88;5057085;28;20705;-74
2021/05/20 11:07:11;;;;;;;7.10;5.13;;;;;;;13.23;79.65;101072.59;5075528;28;20198;-74
2021/05/20 11:09:45;;;;;;;6.07;4.97;;;;;;;13.23;79.60;101069.97;5057801;28;20219;-74
2021/05/20 11:12:11;;;;;;;5.23;4.70;;;;;;;13.36;80.14;101063.50;5062746;28;20662;-74
2021/05/20 11:14:42;;;;;;;6.87;5.00;;;;;;;13.51;79.68;101063.91;5061208;28;20217;-74
2021/05/20 11:17:28;;;;;;;5.13;4.60;;;;;;;13.74;80.47;101060.59;5059220;28;20224;-74
2021/05/20 11:20:37;;;;;;;5.20;4.67;;;;;;;13.96;75.32;101058.94;5058696;28;20217;-74
2021/05/20 11:23:35;;;;;;;5.70;4.40;;;;;;;14.11;74.98;101059.38;5059129;28;20229;-74
2021/05/20 11:26:24;;;;;;;4.73;4.07;;;;;;;14.55;76.27;101060.44;5056318;28;20203;-74